createdAt,value
2023-03-05T00:01:30.369Z,-0.08
2023-03-05T00:03:58.396Z,-0.15
2023-03-05T00:06:29.415Z,-0.20
2023-03-05T00:08:58.500Z,-0.22
2023-03-05T00:11:30.028Z,-0.24
2023-03-05T00:13:59.481Z,-0.24
2023-03-05T00:16:28.623Z,-0.28
2023-03-05T00:18:58.247Z,-0.34
2023-03-05T00:21:31.489Z,-0.40
2023-03-05T00:24:01.815Z,-0.43
2023-03-05T00:26:31.336Z,-0.43
2023-03-05T00:28:59.337Z,-0.43
2023-03-05T00:31:30.658Z,-0.45
2023-03-05T00:34:01.456Z,-0.50
2023-03-05T00:36:29.942Z,-0.49
2023-03-05T00:38:58.619Z,-0.46
2023-03-05T00:41:26.957Z,-0.43
2023-03-05T00:43:55.268Z,-0.42
2023-03-05T00:46:24.355Z,-0.42
2023-03-05T00:48:52.284Z,-0.42
2023-03-05T00:51:20.868Z,-0.42
2023-03-05T00:53:48.719Z,-0.43
2023-03-05T00:56:16.794Z,-0.47
2023-03-05T00:58:44.787Z,-0.49
2023-03-05T01:01:12.878Z,-0.48
2023-03-05T01:03:41.113Z,-0.46
2023-03-05T01:06:12.094Z,-0.47
2023-03-05T01:08:40.001Z,-0.47
2023-03-05T01:11:09.213Z,-0.47
2023-03-05T01:13:37.989Z,-0.46
2023-03-05T01:16:06.385Z,-0.43
2023-03-05T01:18:34.611Z,-0.39
2023-03-05T01:21:03.793Z,-0.34
2023-03-05T01:23:32.284Z,-0.29
2023-03-05T01:26:00.648Z,-0.21
2023-03-05T01:28:28.688Z,-0.12
2023-03-05T01:30:56.505Z,-0.03
2023-03-05T01:33:24.544Z,0.05
2023-03-05T01:35:52.529Z,0.12
2023-03-05T01:38:20.503Z,0.19
2023-03-05T01:40:48.355Z,0.26
2023-03-05T01:43:30.300Z,0.32
2023-03-05T01:46:13.245Z,0.39
2023-03-05T01:48:44.263Z,0.43
2023-03-05T01:51:12.955Z,0.45
2023-03-05T01:53:41.514Z,0.47
2023-03-05T01:56:09.806Z,0.48
2023-03-05T01:58:39.828Z,0.49
2023-03-05T02:01:08.060Z,0.50
2023-03-05T02:03:37.819Z,0.51
2023-03-05T02:06:05.978Z,0.51
2023-03-05T02:08:33.944Z,0.50
2023-03-05T02:11:02.236Z,0.50
2023-03-05T02:13:33.922Z,0.50
2023-03-05T02:16:02.504Z,0.49
2023-03-05T02:18:30.868Z,0.48
2023-03-05T02:21:05.968Z,0.47
2023-03-05T02:23:39.145Z,0.45
2023-03-05T02:26:10.845Z,0.43
2023-03-05T02:28:44.475Z,0.41
2023-03-05T02:31:20.979Z,0.39
2023-03-05T02:33:49.866Z,0.38
2023-03-05T02:36:18.839Z,0.36
2023-03-05T02:38:47.555Z,0.34
2023-03-05T02:41:16.008Z,0.33
2023-03-05T02:43:43.837Z,0.33
2023-03-05T02:46:11.923Z,0.34
2023-03-05T02:48:39.832Z,0.32
2023-03-05T02:51:08.067Z,0.31
2023-03-05T02:53:36.082Z,0.31
2023-03-05T02:56:04.605Z,0.31
2023-03-05T02:58:32.519Z,0.30
2023-03-05T03:01:00.459Z,0.28
2023-03-05T03:03:28.356Z,0.28
2023-03-05T03:05:56.641Z,0.27
2023-03-05T03:08:24.559Z,0.24
2023-03-05T03:10:52.515Z,0.22
2023-03-05T03:13:20.387Z,0.18
2023-03-05T03:15:48.315Z,0.13
2023-03-05T03:18:16.190Z,0.06
2023-03-05T03:20:44.081Z,0.00
2023-03-05T03:23:11.913Z,-0.04
2023-03-05T03:25:39.768Z,-0.10
2023-03-05T03:28:07.783Z,-0.19
2023-03-05T03:30:35.779Z,-0.30
2023-03-05T03:33:03.743Z,-0.40
2023-03-05T03:35:31.849Z,-0.48
2023-03-05T03:37:59.861Z,-0.57
2023-03-05T03:40:27.675Z,-0.69
2023-03-05T03:42:55.635Z,-0.80
2023-03-05T03:45:23.611Z,-0.91
2023-03-05T03:47:52.938Z,-1.00
2023-03-05T03:50:21.654Z,-1.07
2023-03-05T03:52:49.576Z,-1.11
2023-03-05T03:55:17.710Z,-1.13
2023-03-05T03:57:46.078Z,-1.16
2023-03-05T04:00:14.262Z,-1.15
2023-03-05T04:02:43.130Z,-1.11
2023-03-05T04:05:11.166Z,-1.05
2023-03-05T04:07:39.040Z,-0.98
2023-03-05T04:10:07.370Z,-0.91
2023-03-05T04:12:35.230Z,-0.84
2023-03-05T04:15:04.442Z,-0.80
2023-03-05T04:17:33.057Z,-0.75
2023-03-05T04:20:01.438Z,-0.70
2023-03-05T04:22:29.344Z,-0.68
2023-03-05T04:24:57.272Z,-0.67
2023-03-05T04:27:25.124Z,-0.69
2023-03-05T04:29:53.071Z,-0.74
2023-03-05T04:32:23.346Z,-0.79
2023-03-05T04:34:51.490Z,-0.83
2023-03-05T04:37:19.282Z,-0.86
2023-03-05T04:39:47.184Z,-0.87
2023-03-05T04:42:15.037Z,-0.86
2023-03-05T04:44:42.883Z,-0.84
2023-03-05T04:47:10.743Z,-0.82
2023-03-05T04:49:38.598Z,-0.79
2023-03-05T04:52:06.611Z,-0.76
2023-03-05T04:54:37.257Z,-0.74
2023-03-05T04:57:06.002Z,-0.70
2023-03-05T04:59:33.933Z,-0.64
2023-03-05T05:02:01.825Z,-0.58
2023-03-05T05:04:30.055Z,-0.53
2023-03-05T05:06:58.872Z,-0.48
2023-03-05T05:09:27.012Z,-0.44
2023-03-05T05:11:57.617Z,-0.44
2023-03-05T05:14:25.594Z,-0.45
2023-03-05T05:16:53.511Z,-0.47
2023-03-05T05:19:21.609Z,-0.50
2023-03-05T05:21:49.644Z,-0.55
2023-03-05T05:24:17.531Z,-0.60
2023-03-05T05:26:45.443Z,-0.66
2023-03-05T05:29:13.246Z,-0.71
2023-03-05T05:31:41.988Z,-0.76
2023-03-05T05:34:09.899Z,-0.81
2023-03-05T05:36:37.840Z,-0.85
2023-03-05T05:39:05.867Z,-0.88
2023-03-05T05:41:33.821Z,-0.88
2023-03-05T05:44:01.754Z,-0.87
2023-03-05T05:46:29.875Z,-0.83
2023-03-05T05:48:57.802Z,-0.77
2023-03-05T05:51:25.788Z,-0.71
2023-03-05T05:53:54.274Z,-0.65
2023-03-05T05:56:22.352Z,-0.60
2023-03-05T05:58:50.298Z,-0.55
2023-03-05T06:01:22.795Z,-0.50
2023-03-05T06:03:51.071Z,-0.46
2023-03-05T06:06:21.804Z,-0.42
2023-03-05T06:08:51.036Z,-0.35
2023-03-05T06:11:23.077Z,-0.27
2023-03-05T06:13:51.351Z,-0.20
2023-03-05T06:16:24.128Z,-0.13
2023-03-05T06:18:53.178Z,-0.07
2023-03-05T06:21:22.599Z,-0.03
2023-03-05T06:23:51.477Z,0.02
2023-03-05T06:26:22.056Z,0.06
2023-03-05T06:28:50.189Z,0.09
2023-03-05T06:31:25.848Z,0.12
2023-03-05T06:33:56.271Z,0.15
2023-03-05T06:36:25.378Z,0.17
2023-03-05T06:38:53.976Z,0.22
2023-03-05T06:41:25.692Z,0.30
2023-03-05T06:43:54.906Z,0.39
2023-03-05T06:46:25.792Z,0.49
2023-03-05T06:48:57.215Z,0.60
2023-03-05T06:51:33.415Z,0.71
2023-03-05T06:54:04.827Z,0.81
2023-03-05T06:56:35.609Z,0.90
2023-03-05T06:59:03.937Z,0.99
2023-03-05T07:01:31.768Z,1.07
2023-03-05T07:04:00.538Z,1.14
2023-03-05T07:06:31.492Z,1.22
2023-03-05T07:09:01.940Z,1.28
2023-03-05T07:11:31.631Z,1.33
2023-03-05T07:14:00.253Z,1.38
2023-03-05T07:16:31.466Z,1.42
2023-03-05T07:19:03.250Z,1.45
2023-03-05T07:21:33.977Z,1.47
2023-03-05T07:24:04.269Z,1.48
2023-03-05T07:26:33.691Z,1.50
2023-03-05T07:29:02.913Z,1.51
2023-03-05T07:31:31.993Z,1.51
2023-03-05T07:34:03.967Z,1.52
2023-03-05T07:36:34.955Z,1.53
2023-03-05T07:39:05.027Z,1.59
2023-03-05T07:41:35.948Z,1.69
2023-03-05T07:44:03.936Z,1.83
2023-03-05T07:46:34.154Z,1.99
2023-03-05T07:49:02.164Z,2.16
2023-03-05T07:51:30.110Z,2.32
2023-03-05T07:53:59.100Z,2.41
2023-03-05T07:56:37.363Z,2.47
2023-03-05T07:59:08.647Z,2.55
2023-03-05T08:01:37.094Z,2.60
2023-03-05T08:04:06.898Z,2.71
2023-03-05T08:06:34.932Z,2.85
2023-03-05T08:09:02.817Z,3.02
2023-03-05T08:11:30.870Z,3.19
2023-03-05T08:13:59.672Z,3.33
2023-03-05T08:16:27.932Z,3.45
2023-03-05T08:18:57.483Z,3.57
2023-03-05T08:21:29.447Z,3.71
2023-03-05T08:23:58.584Z,3.86
2023-03-05T08:26:31.169Z,4.01
2023-03-05T08:28:59.549Z,4.16
2023-03-05T08:31:28.147Z,4.29
2023-03-05T08:33:58.083Z,4.41
2023-03-05T08:36:26.369Z,4.47
2023-03-05T08:38:54.601Z,4.57
2023-03-05T08:41:22.961Z,4.66
2023-03-05T08:43:51.055Z,4.79
2023-03-05T08:46:19.090Z,4.94
2023-03-05T08:48:47.097Z,4.99
2023-03-05T08:51:18.643Z,4.97
2023-03-05T08:53:47.603Z,5.10
2023-03-05T08:56:15.566Z,5.22
2023-03-05T08:58:44.099Z,5.34
2023-03-05T09:01:13.052Z,5.48
2023-03-05T09:03:42.069Z,5.57
2023-03-05T09:06:12.357Z,5.63
2023-03-05T09:08:41.209Z,5.68
2023-03-05T09:11:11.907Z,5.78
2023-03-05T09:13:40.205Z,5.87
2023-03-05T09:16:12.741Z,5.99
2023-03-05T09:18:41.110Z,6.01
2023-03-05T09:21:14.930Z,6.05
2023-03-05T09:23:44.428Z,6.17
2023-03-05T09:26:15.778Z,6.27
2023-03-05T09:28:43.825Z,6.27
2023-03-05T09:31:12.242Z,6.31
2023-03-05T09:33:40.955Z,6.45
2023-03-05T09:36:25.295Z,6.55
2023-03-05T09:38:53.911Z,6.59
2023-03-05T09:41:51.452Z,6.57
2023-03-05T09:44:38.675Z,6.52
2023-03-05T09:47:26.775Z,6.48
2023-03-05T09:50:22.646Z,6.41
2023-03-05T09:52:56.082Z,6.23
2023-03-05T09:55:29.522Z,6.11
2023-03-05T09:58:06.456Z,5.96
2023-03-05T10:00:46.144Z,5.88
2023-03-05T10:03:30.238Z,5.85
2023-03-05T10:06:20.373Z,5.76
2023-03-05T10:08:56.049Z,5.64
2023-03-05T10:11:38.133Z,5.61
2023-03-05T10:14:13.946Z,5.60
2023-03-05T10:17:04.082Z,5.64
2023-03-05T10:19:54.554Z,5.65
2023-03-05T10:22:31.155Z,5.67
2023-03-05T10:25:11.487Z,5.73
2023-03-05T10:27:42.424Z,5.80
2023-03-05T10:30:29.342Z,5.86
2023-03-05T10:33:03.304Z,5.91
2023-03-05T10:36:05.654Z,5.96
2023-03-05T10:38:55.036Z,5.95
2023-03-05T10:41:48.392Z,5.91
2023-03-05T10:44:44.077Z,5.87
2023-03-05T10:47:36.296Z,5.81
2023-03-05T10:50:17.470Z,5.76
2023-03-05T10:52:54.903Z,5.75
2023-03-05T10:55:27.323Z,5.75
2023-03-05T10:57:56.127Z,5.74
2023-03-05T11:00:28.513Z,5.70
2023-03-05T11:03:10.207Z,5.71
2023-03-05T11:06:01.785Z,5.77
2023-03-05T11:08:31.246Z,5.86
2023-03-05T11:11:05.604Z,5.87
2023-03-05T11:13:35.453Z,5.86
2023-03-05T11:16:06.895Z,5.86
2023-03-05T11:18:34.840Z,5.89
2023-03-05T11:21:14.182Z,5.93
2023-03-05T11:23:42.272Z,6.00
2023-03-05T11:26:13.273Z,6.05
2023-03-05T11:28:57.441Z,6.09
2023-03-05T11:31:27.089Z,6.06
2023-03-05T11:34:13.732Z,6.02
2023-03-05T11:37:04.623Z,5.99
2023-03-05T11:39:35.400Z,6.17
2023-03-05T11:42:19.487Z,6.44
2023-03-05T11:44:51.761Z,6.61
2023-03-05T11:47:39.705Z,6.69
2023-03-05T11:50:32.039Z,6.67
2023-03-05T11:53:10.967Z,6.66
2023-03-05T11:55:49.931Z,6.66
2023-03-05T11:58:24.902Z,6.65
2023-03-05T12:00:52.915Z,6.64
2023-03-05T12:03:32.655Z,6.62
2023-03-05T12:06:06.377Z,6.53
2023-03-05T12:08:38.805Z,6.49
2023-03-05T12:11:17.135Z,6.43
2023-03-05T12:13:56.620Z,6.46
2023-03-05T12:16:55.776Z,6.50
2023-03-05T12:19:34.950Z,6.56
2023-03-05T12:22:04.587Z,6.61
2023-03-05T12:24:35.626Z,6.65
2023-03-05T12:27:03.390Z,6.62
2023-03-05T12:29:42.122Z,6.62
2023-03-05T12:32:22.373Z,6.65
2023-03-05T12:34:58.105Z,6.69
2023-03-05T12:37:26.206Z,6.74
2023-03-05T12:40:10.635Z,6.79
2023-03-05T12:42:38.941Z,6.83
2023-03-05T12:45:31.943Z,6.84
2023-03-05T12:48:01.883Z,6.82
2023-03-05T12:50:29.773Z,6.82
2023-03-05T12:53:14.497Z,6.78
2023-03-05T12:55:48.174Z,6.70
2023-03-05T12:58:35.632Z,6.66
2023-03-05T13:01:27.842Z,6.57
2023-03-05T13:04:01.128Z,6.49
2023-03-05T13:06:34.301Z,6.47
2023-03-05T13:09:17.938Z,6.48
2023-03-05T13:11:50.146Z,6.46
2023-03-05T13:14:42.244Z,6.43
2023-03-05T13:17:36.115Z,6.39
2023-03-05T13:20:42.776Z,6.31
2023-03-05T13:23:26.680Z,6.26
2023-03-05T13:26:15.635Z,6.21
2023-03-05T13:29:02.513Z,6.15
2023-03-05T13:31:30.931Z,6.03
2023-03-05T13:34:08.867Z,5.94
2023-03-05T13:36:38.272Z,5.88
2023-03-05T13:39:07.619Z,5.86
2023-03-05T13:41:35.877Z,5.81
2023-03-05T13:44:03.915Z,5.78
2023-03-05T13:46:31.842Z,5.77
2023-03-05T13:49:26.095Z,5.74
2023-03-05T13:52:00.068Z,5.60
2023-03-05T13:54:29.859Z,5.46
2023-03-05T13:57:01.129Z,5.36
2023-03-05T13:59:31.833Z,5.25
2023-03-05T14:02:20.566Z,5.18
2023-03-05T14:04:48.721Z,5.12
2023-03-05T14:07:40.910Z,5.07
2023-03-05T14:10:37.760Z,5.00
2023-03-05T14:13:13.336Z,4.96
2023-03-05T14:15:41.347Z,4.92
2023-03-05T14:18:12.216Z,4.88
2023-03-05T14:21:01.529Z,4.86
2023-03-05T14:23:32.397Z,4.87
2023-03-05T14:26:22.532Z,4.88
2023-03-05T14:28:53.283Z,4.89
2023-03-05T14:31:22.718Z,4.89
2023-03-05T14:33:51.960Z,4.88
2023-03-05T14:36:26.235Z,4.85
2023-03-05T14:38:54.485Z,4.82
2023-03-05T14:41:39.077Z,4.78
2023-03-05T14:44:16.301Z,4.73
2023-03-05T14:46:49.291Z,4.66
2023-03-05T14:49:17.997Z,4.58
2023-03-05T14:51:46.735Z,4.56
2023-03-05T14:54:23.978Z,4.54
2023-03-05T14:56:52.375Z,4.47
2023-03-05T14:59:21.814Z,4.42
2023-03-05T15:01:51.006Z,4.38
2023-03-05T15:04:19.872Z,4.36
2023-03-05T15:06:50.949Z,4.35
2023-03-05T15:09:20.492Z,4.33
2023-03-05T15:11:48.747Z,4.28
2023-03-05T15:14:16.881Z,4.21
2023-03-05T15:16:45.824Z,4.13
2023-03-05T15:19:14.061Z,4.07
2023-03-05T15:21:42.244Z,4.00
2023-03-05T15:24:11.413Z,3.95
2023-03-05T15:26:39.796Z,3.94
2023-03-05T15:29:07.804Z,3.92
2023-03-05T15:31:38.816Z,3.88
2023-03-05T15:34:07.166Z,3.83
2023-03-05T15:36:35.085Z,3.80
2023-03-05T15:39:03.346Z,3.78
2023-03-05T15:41:31.365Z,3.78
2023-03-05T15:43:59.287Z,3.75
2023-03-05T15:46:29.541Z,3.72
2023-03-05T15:48:57.636Z,3.70
2023-03-05T15:51:28.337Z,3.65
2023-03-05T15:53:56.417Z,3.60
2023-03-05T15:56:24.579Z,3.59
2023-03-05T15:58:52.412Z,3.58
2023-03-05T16:01:20.974Z,3.56
2023-03-05T16:03:50.437Z,3.55
2023-03-05T16:06:22.891Z,3.54
2023-03-05T16:08:55.713Z,3.54
2023-03-05T16:11:23.908Z,3.56
2023-03-05T16:13:51.993Z,3.57
2023-03-05T16:16:21.757Z,3.58
2023-03-05T16:18:49.976Z,3.58
2023-03-05T16:21:17.892Z,3.57
2023-03-05T16:23:45.689Z,3.58
2023-03-05T16:26:13.636Z,3.59
2023-03-05T16:28:41.580Z,3.58
2023-03-05T16:31:09.439Z,3.57
2023-03-05T16:33:38.716Z,3.54
2023-03-05T16:36:27.445Z,3.53
2023-03-05T16:39:00.432Z,3.54
2023-03-05T16:41:29.244Z,3.55
2023-03-05T16:43:57.594Z,3.55
2023-03-05T16:46:27.909Z,3.53
2023-03-05T16:48:58.200Z,3.47
2023-03-05T16:51:30.338Z,3.42
2023-03-05T16:54:03.790Z,3.37
2023-03-05T16:56:32.094Z,3.32
2023-03-05T16:58:59.954Z,3.26
2023-03-05T17:01:30.457Z,3.21
2023-03-05T17:04:00.780Z,3.17
2023-03-05T17:06:31.084Z,3.14
2023-03-05T17:09:05.424Z,3.10
2023-03-05T17:11:33.953Z,3.06
2023-03-05T17:14:04.045Z,3.03
2023-03-05T17:16:32.682Z,3.02
2023-03-05T17:19:01.086Z,3.00
2023-03-05T17:21:29.178Z,2.99
2023-03-05T17:23:57.109Z,2.99
2023-03-05T17:26:25.095Z,2.97
2023-03-05T17:28:54.427Z,2.96
2023-03-05T17:31:22.425Z,2.96
2023-03-05T17:33:50.951Z,2.95
2023-03-05T17:36:20.632Z,2.97
2023-03-05T17:38:50.111Z,2.97
2023-03-05T17:41:18.972Z,2.97
2023-03-05T17:43:47.012Z,2.98
2023-03-05T17:46:15.985Z,2.97
2023-03-05T17:48:44.114Z,2.96
2023-03-05T17:51:14.081Z,2.96
2023-03-05T17:53:42.436Z,2.98
2023-03-05T17:56:12.629Z,3.00
2023-03-05T17:58:41.066Z,3.02
2023-03-05T18:01:09.740Z,3.02
2023-03-05T18:03:37.924Z,3.02
2023-03-05T18:06:06.120Z,3.02
2023-03-05T18:08:34.244Z,3.02
2023-03-05T18:11:02.321Z,3.01
2023-03-05T18:13:30.561Z,2.98
2023-03-05T18:16:00.069Z,2.94
2023-03-05T18:18:30.852Z,2.93
2023-03-05T18:21:00.859Z,2.92
2023-03-05T18:23:28.893Z,2.91
2023-03-05T18:25:56.893Z,2.91
2023-03-05T18:28:25.988Z,2.90
2023-03-05T18:30:53.982Z,2.89
2023-03-05T18:33:24.415Z,2.91
2023-03-05T18:35:53.046Z,2.92
2023-03-05T18:38:22.978Z,2.93
2023-03-05T18:40:51.755Z,2.93
2023-03-05T18:43:21.482Z,2.93
2023-03-05T18:45:54.910Z,2.93
2023-03-05T18:48:23.496Z,2.92
2023-03-05T18:50:54.494Z,2.90
2023-03-05T18:53:24.146Z,2.89
2023-03-05T18:55:54.951Z,2.86
2023-03-05T18:58:23.153Z,2.83
2023-03-05T19:00:52.536Z,2.82
2023-03-05T19:03:23.150Z,2.83
2023-03-05T19:05:53.413Z,2.82
2023-03-05T19:08:22.189Z,2.80
2023-03-05T19:10:50.179Z,2.79
2023-03-05T19:13:49.145Z,2.78
2023-03-05T19:16:21.756Z,2.78
2023-03-05T19:19:31.644Z,2.77
2023-03-05T19:21:59.951Z,2.76
2023-03-05T19:24:30.898Z,2.75
2023-03-05T19:27:01.141Z,2.75
2023-03-05T19:29:34.586Z,2.76
2023-03-05T19:32:02.688Z,2.76
2023-03-05T19:34:33.721Z,2.75
2023-03-05T19:37:02.418Z,2.72
2023-03-05T19:39:31.276Z,2.70
2023-03-05T19:41:59.200Z,2.69
2023-03-05T19:44:27.320Z,2.70
2023-03-05T19:46:55.317Z,2.71
2023-03-05T19:49:24.186Z,2.71
2023-03-05T19:52:00.365Z,2.74
2023-03-05T19:54:28.442Z,2.72
2023-03-05T19:56:56.471Z,2.69
2023-03-05T19:59:25.170Z,2.69
2023-03-05T20:01:53.344Z,2.68
2023-03-05T20:04:23.833Z,2.68
2023-03-05T20:06:54.604Z,2.67
2023-03-05T20:09:22.706Z,2.66
2023-03-05T20:11:51.213Z,2.63
2023-03-05T20:14:19.162Z,2.60
2023-03-05T20:16:52.380Z,2.58
2023-03-05T20:19:22.129Z,2.58
2023-03-05T20:21:50.179Z,2.58
2023-03-05T20:24:19.572Z,2.56
2023-03-05T20:26:47.937Z,2.54
2023-03-05T20:29:18.297Z,2.53
2023-03-05T20:31:47.847Z,2.51
2023-03-05T20:34:18.206Z,2.50
2023-03-05T20:36:46.639Z,2.50
2023-03-05T20:39:14.555Z,2.51
2023-03-05T20:41:42.612Z,2.50
2023-03-05T20:44:11.498Z,2.50
2023-03-05T20:47:37.164Z,2.48
2023-03-05T20:50:05.587Z,2.48
2023-03-05T20:52:33.435Z,2.49
2023-03-05T20:55:02.013Z,2.49
2023-03-05T20:57:30.964Z,2.49
2023-03-05T21:00:01.790Z,2.49
2023-03-05T21:02:30.929Z,2.50
2023-03-05T21:04:58.922Z,2.51
2023-03-05T21:07:29.390Z,2.53
2023-03-05T21:09:57.207Z,2.55
2023-03-05T21:12:25.150Z,2.56
2023-03-05T21:14:52.970Z,2.56
2023-03-05T21:17:20.964Z,2.56
2023-03-05T21:19:48.834Z,2.56
2023-03-05T21:22:16.783Z,2.55
2023-03-05T21:25:22.517Z,2.55
2023-03-05T21:28:02.919Z,2.53
2023-03-05T21:30:34.585Z,2.52
2023-03-05T21:33:07.763Z,2.52
2023-03-05T21:35:36.616Z,2.50
2023-03-05T21:38:06.798Z,2.49
2023-03-05T21:40:36.493Z,2.49
2023-03-05T21:43:04.537Z,2.49
2023-03-05T21:45:32.526Z,2.48
2023-03-05T21:48:00.536Z,2.47
2023-03-05T21:50:28.543Z,2.48
2023-03-05T21:52:56.414Z,2.48
2023-03-05T21:56:07.996Z,2.47
2023-03-05T21:58:35.986Z,2.47
2023-03-05T22:01:04.010Z,2.47
2023-03-05T22:03:32.020Z,2.47
2023-03-05T22:06:00.049Z,2.46
2023-03-05T22:08:29.944Z,2.45
2023-03-05T22:10:57.801Z,2.45
2023-03-05T22:13:25.763Z,2.46
2023-03-05T22:15:55.904Z,2.47
2023-03-05T22:18:26.802Z,2.49
2023-03-05T22:20:55.936Z,2.51
2023-03-05T22:23:29.642Z,2.52
2023-03-05T22:26:07.989Z,2.52
2023-03-05T22:28:39.002Z,2.52
2023-03-05T22:31:06.911Z,2.52
2023-03-05T22:33:34.901Z,2.52
2023-03-05T22:36:14.079Z,2.52
2023-03-05T22:38:42.820Z,2.52
2023-03-05T22:41:13.583Z,2.53
2023-03-05T22:43:41.960Z,2.53
2023-03-05T22:46:15.575Z,2.53
2023-03-05T22:48:44.154Z,2.51
2023-03-05T22:51:12.823Z,2.48
2023-03-05T22:53:41.203Z,2.44
2023-03-05T22:56:12.177Z,2.43
2023-03-05T22:58:40.300Z,2.43
2023-03-05T23:01:16.399Z,2.43
2023-03-05T23:04:38.472Z,2.43
2023-03-05T23:07:06.828Z,2.42
2023-03-05T23:09:34.772Z,2.41
2023-03-05T23:12:02.673Z,2.40
2023-03-05T23:14:30.546Z,2.38
2023-03-05T23:16:58.434Z,2.37
2023-03-05T23:19:26.242Z,2.36
2023-03-05T23:21:54.056Z,2.35
2023-03-05T23:24:22.029Z,2.33
2023-03-05T23:26:49.920Z,2.31
2023-03-05T23:30:05.355Z,2.29
2023-03-05T23:32:33.313Z,2.29
2023-03-05T23:35:01.220Z,2.28
2023-03-05T23:37:29.073Z,2.28
2023-03-05T23:39:57.004Z,2.29
2023-03-05T23:42:24.960Z,2.29
2023-03-05T23:44:54.464Z,2.29
2023-03-05T23:47:22.446Z,2.27
2023-03-05T23:49:50.320Z,2.25
2023-03-05T23:52:18.144Z,2.24
2023-03-05T23:54:46.014Z,2.24
2023-03-05T23:57:13.890Z,2.23
2023-03-05T23:59:42.012Z,2.22
